sensor_id;sensor_type;location;lat;lon;timestamp;pressure;altitude;pressure_sealevel;temperature;humidity
58245;BME280;44550;43.864;25.986;2023-02-19T00:03:06;101008.78;;;12.16;61.84
58245;BME280;44550;43.864;25.986;2023-02-19T00:07:09;100994.81;;;12.19;61.62
58245;BME280;44550;43.864;25.986;2023-02-19T00:11:26;100989.56;;;12.16;61.55
58245;BME280;44550;43.864;25.986;2023-02-19T00:15:40;100990.47;;;12.27;61.32
58245;BME280;44550;43.864;25.986;2023-02-19T00:19:55;100984.38;;;12.40;60.98
58245;BME280;44550;43.864;25.986;2023-02-19T00:24:01;100975.66;;;12.46;60.77
58245;BME280;44550;43.864;25.986;2023-02-19T00:28:04;100974.81;;;12.56;60.52
58245;BME280;44550;43.864;25.986;2023-02-19T00:32:11;100972.19;;;12.61;60.34
58245;BME280;44550;43.864;25.986;2023-02-19T00:36:18;100984.47;;;12.66;59.52
58245;BME280;44550;43.864;25.986;2023-02-19T00:40:20;100980.09;;;12.67;58.43
58245;BME280;44550;43.864;25.986;2023-02-19T00:44:28;100967.84;;;12.69;57.92
58245;BME280;44550;43.864;25.986;2023-02-19T00:48:35;100959.09;;;12.70;57.73
58245;BME280;44550;43.864;25.986;2023-02-19T00:52:40;100965.22;;;12.70;57.60
58245;BME280;44550;43.864;25.986;2023-02-19T00:56:42;100954.75;;;12.77;57.57
58245;BME280;44550;43.864;25.986;2023-02-19T01:00:49;100952.13;;;12.72;57.27
58245;BME280;44550;43.864;25.986;2023-02-19T01:04:50;100950.38;;;12.76;57.08
58245;BME280;44550;43.864;25.986;2023-02-19T01:08:56;100950.34;;;12.74;57.12
58245;BME280;44550;43.864;25.986;2023-02-19T01:13:09;100961.75;;;12.79;57.07
58245;BME280;44550;43.864;25.986;2023-02-19T01:22:00;100967.88;;;12.72;57.09
58245;BME280;44550;43.864;25.986;2023-02-19T01:26:03;100963.47;;;12.74;57.04
58245;BME280;44550;43.864;25.986;2023-02-19T01:30:12;100965.22;;;12.70;56.90
58245;BME280;44550;43.864;25.986;2023-02-19T01:34:13;100964.34;;;12.64;56.84
58245;BME280;44550;43.864;25.986;2023-02-19T01:38:21;100952.97;;;12.56;56.92
58245;BME280;44550;43.864;25.986;2023-02-19T01:42:21;100958.19;;;12.53;56.87
58245;BME280;44550;43.864;25.986;2023-02-19T01:46:28;100945.06;;;12.48;56.98
58245;BME280;44550;43.864;25.986;2023-02-19T01:50:32;100960.75;;;12.30;57.38
58245;BME280;44550;43.864;25.986;2023-02-19T01:54:36;100955.50;;;12.23;57.19
58245;BME280;44550;43.864;25.986;2023-02-19T01:58:48;100966.78;;;12.12;57.66
58245;BME280;44550;43.864;25.986;2023-02-19T02:02:51;100979.00;;;12.05;57.96
58245;BME280;44550;43.864;25.986;2023-02-19T02:06:58;100969.31;;;11.92;58.35
58245;BME280;44550;43.864;25.986;2023-02-19T02:11:28;100968.44;;;11.87;58.61
58245;BME280;44550;43.864;25.986;2023-02-19T02:15:47;100966.59;;;11.73;59.10
58245;BME280;44550;43.864;25.986;2023-02-19T02:20:00;100968.28;;;11.64;59.41
58245;BME280;44550;43.864;25.986;2023-02-19T02:24:10;100967.38;;;11.60;59.35
58245;BME280;44550;43.864;25.986;2023-02-19T02:28:24;100976.03;;;11.51;59.46
58245;BME280;44550;43.864;25.986;2023-02-19T02:32:32;100982.16;;;11.50;59.34
58245;BME280;44550;43.864;25.986;2023-02-19T02:36:54;100991.78;;;11.53;59.16
58245;BME280;44550;43.864;25.986;2023-02-19T02:41:01;101003.97;;;11.49;59.30
58245;BME280;44550;43.864;25.986;2023-02-19T02:45:19;101008.34;;;11.50;59.30
58245;BME280;44550;43.864;25.986;2023-02-19T02:49:40;101008.31;;;11.47;59.46
58245;BME280;44550;43.864;25.986;2023-02-19T02:54:04;101014.34;;;11.39;59.65
58245;BME280;44550;43.864;25.986;2023-02-19T02:58:25;101025.66;;;11.30;59.85
58245;BME280;44550;43.864;25.986;2023-02-19T03:02:29;101025.56;;;11.19;60.13
58245;BME280;44550;43.864;25.986;2023-02-19T03:06:36;101015.94;;;11.18;60.00
58245;BME280;44550;43.864;25.986;2023-02-19T03:10:42;101022.78;;;11.05;60.43
58245;BME280;44550;43.864;25.986;2023-02-19T03:14:44;101019.25;;;10.99;60.71
58245;BME280;44550;43.864;25.986;2023-02-19T03:19:04;101020.94;;;10.94;60.92
58245;BME280;44550;43.864;25.986;2023-02-19T03:23:25;101028.72;;;10.89;60.93
58245;BME280;44550;43.864;25.986;2023-02-19T03:27:53;101033.13;;;10.90;61.10
58245;BME280;44550;43.864;25.986;2023-02-19T03:32:00;101026.97;;;10.85;61.08
58245;BME280;44550;43.864;25.986;2023-02-19T03:36:06;101043.41;;;10.75;61.39
58245;BME280;44550;43.864;25.986;2023-02-19T03:40:15;101043.38;;;10.72;61.64
58245;BME280;44550;43.864;25.986;2023-02-19T03:44:29;101043.28;;;10.61;62.09
58245;BME280;44550;43.864;25.986;2023-02-19T03:48:53;101039.69;;;10.53;62.48
58245;BME280;44550;43.864;25.986;2023-02-19T03:52:58;101020.41;;;10.45;62.66
58245;BME280;44550;43.864;25.986;2023-02-19T03:57:10;101038.84;;;10.54;62.66
58245;BME280;44550;43.864;25.986;2023-02-19T04:01:23;101050.91;;;10.46;63.03
58245;BME280;44550;43.864;25.986;2023-02-19T04:05:28;101052.66;;;10.45;63.23
58245;BME280;44550;43.864;25.986;2023-02-19T04:09:32;101066.53;;;10.40;63.35
58245;BME280;44550;43.864;25.986;2023-02-19T04:13:44;101067.34;;;10.34;63.58
58245;BME280;44550;43.864;25.986;2023-02-19T04:17:52;101066.38;;;10.29;63.89
58245;BME280;44550;43.864;25.986;2023-02-19T04:22:03;101066.22;;;10.18;64.50
58245;BME280;44550;43.864;25.986;2023-02-19T04:26:06;101064.47;;;10.17;64.56
58245;BME280;44550;43.864;25.986;2023-02-19T04:30:14;101067.81;;;10.08;64.78
58245;BME280;44550;43.864;25.986;2023-02-19T04:34:23;101062.59;;;10.08;64.79
58245;BME280;44550;43.864;25.986;2023-02-19T04:38:31;101071.25;;;10.06;64.93
58245;BME280;44550;43.864;25.986;2023-02-19T04:42:38;101065.13;;;10.01;65.15
58245;BME280;44550;43.864;25.986;2023-02-19T04:46:42;101065.13;;;10.02;65.20
58245;BME280;44550;43.864;25.986;2023-02-19T04:55:03;101074.69;;;10.00;65.32
58245;BME280;44550;43.864;25.986;2023-02-19T04:59:11;101076.41;;;10.00;65.42
58245;BME280;44550;43.864;25.986;2023-02-19T05:03:14;101083.41;;;10.01;65.47
58245;BME280;44550;43.864;25.986;2023-02-19T05:07:15;101098.88;;;9.87;66.09
58245;BME280;44550;43.864;25.986;2023-02-19T05:11:16;101098.78;;;9.81;66.54
58245;BME280;44550;43.864;25.986;2023-02-19T05:15:18;101100.31;;;9.68;67.27
58245;BME280;44550;43.864;25.986;2023-02-19T05:23:58;101114.00;;;9.55;68.52
58245;BME280;44550;43.864;25.986;2023-02-19T05:28:02;101117.25;;;9.41;69.37
58245;BME280;44550;43.864;25.986;2023-02-19T05:32:16;101131.06;;;9.34;69.84
58245;BME280;44550;43.864;25.986;2023-02-19T05:36:20;101144.16;;;9.37;69.78
58245;BME280;44550;43.864;25.986;2023-02-19T05:40:28;101154.59;;;9.37;69.70
58245;BME280;44550;43.864;25.986;2023-02-19T05:44:28;101158.22;;;9.44;69.30
58245;BME280;44550;43.864;25.986;2023-02-19T05:48:29;101167.78;;;9.45;69.34
58245;BME280;44550;43.864;25.986;2023-02-19T05:52:31;101181.84;;;9.53;69.17
58245;BME280;44550;43.864;25.986;2023-02-19T05:56:35;101185.34;;;9.54;69.16
58245;BME280;44550;43.864;25.986;2023-02-19T06:00:35;101191.28;;;9.47;69.66
58245;BME280;44550;43.864;25.986;2023-02-19T06:04:45;101199.00;;;9.39;70.24
58245;BME280;44550;43.864;25.986;2023-02-19T06:08:46;101205.00;;;9.35;70.59
58245;BME280;44550;43.864;25.986;2023-02-19T06:13:03;101210.09;;;9.27;71.24
58245;BME280;44550;43.864;25.986;2023-02-19T06:17:04;101214.63;;;9.37;71.32
58245;BME280;44550;43.864;25.986;2023-02-19T06:21:09;101215.69;;;9.47;71.29
58245;BME280;44550;43.864;25.986;2023-02-19T06:25:19;101222.59;;;9.45;71.62
58245;BME280;44550;43.864;25.986;2023-02-19T06:29:25;101227.25;;;9.61;71.48
58245;BME280;44550;43.864;25.986;2023-02-19T06:33:27;101229.19;;;9.72;71.09
58245;BME280;44550;43.864;25.986;2023-02-19T06:37:31;101236.50;;;9.91;70.71
58245;BME280;44550;43.864;25.986;2023-02-19T06:41:37;101236.75;;;10.06;70.05
58245;BME280;44550;43.864;25.986;2023-02-19T06:45:43;101231.63;;;10.11;70.00
58245;BME280;44550;43.864;25.986;2023-02-19T06:49:47;101236.94;;;10.17;69.79
58245;BME280;44550;43.864;25.986;2023-02-19T06:53:57;101251.81;;;10.23;69.90
58245;BME280;44550;43.864;25.986;2023-02-19T06:57:59;101244.44;;;10.49;69.53
58245;BME280;44550;43.864;25.986;2023-02-19T07:02:03;101248.19;;;10.66;68.99
58245;BME280;44550;43.864;25.986;2023-02-19T07:06:04;101249.41;;;10.91;68.31
58245;BME280;44550;43.864;25.986;2023-02-19T07:10:14;101241.50;;;10.88;69.02
58245;BME280;44550;43.864;25.986;2023-02-19T07:14:24;101237.31;;;11.01;69.14
58245;BME280;44550;43.864;25.986;2023-02-19T07:18:32;101223.59;;;11.19;69.13
58245;BME280;44550;43.864;25.986;2023-02-19T07:22:35;101226.50;;;11.43;68.67
58245;BME280;44550;43.864;25.986;2023-02-19T07:26:43;101225.00;;;11.67;68.26
58245;BME280;44550;43.864;25.986;2023-02-19T07:31:05;101219.16;;;11.94;67.65
58245;BME280;44550;43.864;25.986;2023-02-19T07:35:47;101202.84;;;12.30;66.35
58245;BME280;44550;43.864;25.986;2023-02-19T07:40:00;101202.81;;;12.24;66.72
58245;BME280;44550;43.864;25.986;2023-02-19T07:44:13;101211.69;;;12.44;66.45
58245;BME280;44550;43.864;25.986;2023-02-19T07:48:16;101207.38;;;12.54;66.30
58245;BME280;44550;43.864;25.986;2023-02-19T07:52:34;101208.44;;;12.85;65.50
58245;BME280;44550;43.864;25.986;2023-02-19T07:56:47;101215.53;;;13.06;64.63
58245;BME280;44550;43.864;25.986;2023-02-19T08:01:07;101218.19;;;13.12;64.69
58245;BME280;44550;43.864;25.986;2023-02-19T08:05:24;101224.41;;;13.30;64.14
58245;BME280;44550;43.864;25.986;2023-02-19T08:09:33;101222.69;;;13.39;63.42
58245;BME280;44550;43.864;25.986;2023-02-19T08:14:24;101216.63;;;13.59;63.26
58245;BME280;44550;43.864;25.986;2023-02-19T08:18:55;101210.44;;;13.43;63.30
58245;BME280;44550;43.864;25.986;2023-02-19T08:23:52;101223.63;;;13.55;63.12
58245;BME280;44550;43.864;25.986;2023-02-19T09:22:12;101205.22;;;14.40;59.50
58245;BME280;44550;43.864;25.986;2023-02-19T09:26:20;101182.44;;;14.57;59.32
58245;BME280;44550;43.864;25.986;2023-02-19T09:30:25;101174.50;;;14.66;58.67
58245;BME280;44550;43.864;25.986;2023-02-19T09:34:38;101184.09;;;14.83;58.10
58245;BME280;44550;43.864;25.986;2023-02-19T09:39:00;101176.13;;;15.07;57.48
58245;BME280;44550;43.864;25.986;2023-02-19T09:43:14;101178.56;;;15.36;56.45
58245;BME280;44550;43.864;25.986;2023-02-19T09:47:29;101172.47;;;15.30;55.67
58245;BME280;44550;43.864;25.986;2023-02-19T09:51:34;101161.09;;;15.23;55.63
58245;BME280;44550;43.864;25.986;2023-02-19T09:55:49;101157.50;;;15.38;55.67
58245;BME280;44550;43.864;25.986;2023-02-19T10:00:19;101153.97;;;15.43;55.15
58245;BME280;44550;43.864;25.986;2023-02-19T10:04:58;101155.59;;;15.61;54.72
58245;BME280;44550;43.864;25.986;2023-02-19T10:09:20;101130.03;;;15.77;53.70
58245;BME280;44550;43.864;25.986;2023-02-19T10:18:27;101137.56;;;16.15;52.22
58245;BME280;44550;43.864;25.986;2023-02-19T10:27:29;101130.16;;;16.51;50.94
58245;BME280;44550;43.864;25.986;2023-02-19T10:31:33;101123.25;;;16.38;50.90
58245;BME280;44550;43.864;25.986;2023-02-19T10:35:57;101117.69;;;16.65;50.08
58245;BME280;44550;43.864;25.986;2023-02-19T10:40:19;101108.88;;;16.65;49.43
58245;BME280;44550;43.864;25.986;2023-02-19T10:44:29;101091.25;;;16.67;49.77
58245;BME280;44550;43.864;25.986;2023-02-19T10:48:45;101093.47;;;17.02;48.80
58245;BME280;44550;43.864;25.986;2023-02-19T10:52:55;101088.97;;;17.07;48.70
58245;BME280;44550;43.864;25.986;2023-02-19T11:01:23;101073.63;;;17.31;48.25
58245;BME280;44550;43.864;25.986;2023-02-19T11:05:40;101063.28;;;17.17;49.27
58245;BME280;44550;43.864;25.986;2023-02-19T11:09:56;101049.75;;;17.38;46.60
58245;BME280;44550;43.864;25.986;2023-02-19T11:14:36;101051.63;;;17.30;47.58
58245;BME280;44550;43.864;25.986;2023-02-19T11:18:40;101043.75;;;17.27;47.70
58245;BME280;44550;43.864;25.986;2023-02-19T11:23:24;101051.50;;;17.38;48.09
58245;BME280;44550;43.864;25.986;2023-02-19T11:37:07;101030.56;;;17.26;46.82
58245;BME280;44550;43.864;25.986;2023-02-19T11:41:41;101032.34;;;17.24;47.59
58245;BME280;44550;43.864;25.986;2023-02-19T11:46:20;101023.88;;;17.02;47.84
58245;BME280;44550;43.864;25.986;2023-02-19T11:55:44;101044.25;;;16.94;47.98
58245;BME280;44550;43.864;25.986;2023-02-19T12:00:11;101044.22;;;16.95;48.69
58245;BME280;44550;43.864;25.986;2023-02-19T12:04:32;101040.66;;;16.99;47.99
58245;BME280;44550;43.864;25.986;2023-02-19T12:09:29;101019.22;;;17.18;48.20
58245;BME280;44550;43.864;25.986;2023-02-19T12:13:46;101020.91;;;17.23;47.45
58245;BME280;44550;43.864;25.986;2023-02-19T12:22:43;101001.41;;;17.32;46.92
58245;BME280;44550;43.864;25.986;2023-02-19T12:27:11;101006.00;;;17.19;46.83
58245;BME280;44550;43.864;25.986;2023-02-19T12:40:48;100989.38;;;17.64;46.49
58245;BME280;44550;43.864;25.986;2023-02-19T12:45:03;100986.88;;;17.54;47.29
58245;BME280;44550;43.864;25.986;2023-02-19T12:50:04;100985.56;;;17.80;46.64
58245;BME280;44550;43.864;25.986;2023-02-19T12:54:50;100983.84;;;17.77;46.38
58245;BME280;44550;43.864;25.986;2023-02-19T13:04:10;100971.31;;;17.89;46.03
58245;BME280;44550;43.864;25.986;2023-02-19T13:08:19;100963.97;;;18.03;46.18
58245;BME280;44550;43.864;25.986;2023-02-19T13:12:24;100961.94;;;17.69;46.40
58245;BME280;44550;43.864;25.986;2023-02-19T13:16:51;100951.13;;;17.83;46.06
58245;BME280;44550;43.864;25.986;2023-02-19T13:21:00;100946.25;;;17.61;46.70
58245;BME280;44550;43.864;25.986;2023-02-19T13:25:26;100943.50;;;17.65;47.07
58245;BME280;44550;43.864;25.986;2023-02-19T13:29:55;100943.66;;;17.58;46.82
58245;BME280;44550;43.864;25.986;2023-02-19T13:34:34;100943.44;;;17.69;46.92
58245;BME280;44550;43.864;25.986;2023-02-19T13:38:53;100926.88;;;17.58;47.78
58245;BME280;44550;43.864;25.986;2023-02-19T13:43:21;100920.34;;;17.79;47.54
58245;BME280;44550;43.864;25.986;2023-02-19T13:53:00;100911.91;;;18.03;46.94
58245;BME280;44550;43.864;25.986;2023-02-19T14:03:30;100907.47;;;18.05;46.93
58245;BME280;44550;43.864;25.986;2023-02-19T14:08:51;100900.81;;;17.84;46.87
58245;BME280;44550;43.864;25.986;2023-02-19T14:18:58;100912.69;;;17.64;47.28
58245;BME280;44550;43.864;25.986;2023-02-19T14:23:25;100903.97;;;17.58;48.01
58245;BME280;44550;43.864;25.986;2023-02-19T14:32:54;100904.97;;;17.51;48.63
58245;BME280;44550;43.864;25.986;2023-02-19T14:37:19;100896.22;;;17.49;48.92
58245;BME280;44550;43.864;25.986;2023-02-19T14:41:39;100893.56;;;17.49;49.08
58245;BME280;44550;43.864;25.986;2023-02-19T14:45:43;100898.00;;;17.49;49.23
58245;BME280;44550;43.864;25.986;2023-02-19T14:55:22;100877.03;;;17.38;49.29
58245;BME280;44550;43.864;25.986;2023-02-19T14:59:53;100877.25;;;17.27;49.71
58245;BME280;44550;43.864;25.986;2023-02-19T15:08:31;100883.66;;;17.14;50.32
58245;BME280;44550;43.864;25.986;2023-02-19T15:12:51;100892.28;;;17.24;50.20
58245;BME280;44550;43.864;25.986;2023-02-19T15:17:10;100891.38;;;17.26;50.34
58245;BME280;44550;43.864;25.986;2023-02-19T15:21:27;100890.41;;;17.32;50.65
58245;BME280;44550;43.864;25.986;2023-02-19T15:25:59;100887.91;;;17.23;51.18
58245;BME280;44550;43.864;25.986;2023-02-19T15:30:14;100890.09;;;16.98;52.03
58245;BME280;44550;43.864;25.986;2023-02-19T15:34:32;100880.69;;;16.81;52.63
58245;BME280;44550;43.864;25.986;2023-02-19T15:38:36;100876.41;;;16.73;52.81
58245;BME280;44550;43.864;25.986;2023-02-19T15:42:43;100880.97;;;16.63;53.12
58245;BME280;44550;43.864;25.986;2023-02-19T15:46:52;100883.63;;;16.61;53.04
58245;BME280;44550;43.864;25.986;2023-02-19T15:51:02;100877.56;;;16.56;53.03
58245;BME280;44550;43.864;25.986;2023-02-19T15:59:58;100894.38;;;16.49;53.60
58245;BME280;44550;43.864;25.986;2023-02-19T16:04:18;100907.69;;;16.41;54.13
58245;BME280;44550;43.864;25.986;2023-02-19T16:08:32;100903.38;;;16.36;54.19
58245;BME280;44550;43.864;25.986;2023-02-19T16:12:41;100912.84;;;16.51;53.99
58245;BME280;44550;43.864;25.986;2023-02-19T16:27:09;100898.03;;;16.39;54.54
58245;BME280;44550;43.864;25.986;2023-02-19T16:37:29;100915.59;;;16.41;54.46
58245;BME280;44550;43.864;25.986;2023-02-19T16:47:26;100908.75;;;16.28;54.89
58245;BME280;44550;43.864;25.986;2023-02-19T16:51:47;100902.53;;;16.32;54.58
58245;BME280;44550;43.864;25.986;2023-02-19T17:01:29;100917.75;;;16.13;55.17
58245;BME280;44550;43.864;25.986;2023-02-19T17:20:36;100914.38;;;16.04;55.45
58245;BME280;44550;43.864;25.986;2023-02-19T17:31:00;100894.31;;;15.90;55.51
58245;BME280;44550;43.864;25.986;2023-02-19T17:51:30;100902.50;;;15.63;56.75
58245;BME280;44550;43.864;25.986;2023-02-19T18:22:45;100912.22;;;15.61;56.34
58245;BME280;44550;43.864;25.986;2023-02-19T18:27:14;100907.19;;;15.38;56.96
58245;BME280;44550;43.864;25.986;2023-02-19T18:31:38;100910.75;;;15.34;57.15
58245;BME280;44550;43.864;25.986;2023-02-19T18:36:09;100900.91;;;15.51;56.55
58245;BME280;44550;43.864;25.986;2023-02-19T18:40:35;100914.00;;;15.56;56.16
58245;BME280;44550;43.864;25.986;2023-02-19T18:49:55;100916.84;;;15.36;56.77
58245;BME280;44550;43.864;25.986;2023-02-19T18:54:35;100922.13;;;15.36;57.01
58245;BME280;44550;43.864;25.986;2023-02-19T18:58:47;100922.25;;;15.26;57.29
58245;BME280;44550;43.864;25.986;2023-02-19T19:03:20;100918.84;;;15.14;57.53
58245;BME280;44550;43.864;25.986;2023-02-19T19:07:57;100925.09;;;15.03;58.09
58245;BME280;44550;43.864;25.986;2023-02-19T19:12:30;100924.25;;;14.97;58.47
58245;BME280;44550;43.864;25.986;2023-02-19T19:16:45;100920.00;;;14.76;59.12
58245;BME280;44550;43.864;25.986;2023-02-19T19:21:19;100931.41;;;14.78;59.33
58245;BME280;44550;43.864;25.986;2023-02-19T19:25:29;100932.31;;;14.75;59.56
58245;BME280;44550;43.864;25.986;2023-02-19T19:29:40;100939.41;;;14.67;59.89
58245;BME280;44550;43.864;25.986;2023-02-19T19:34:34;100942.13;;;14.50;60.21
58245;BME280;44550;43.864;25.986;2023-02-19T19:38:55;100955.28;;;14.46;60.25
58245;BME280;44550;43.864;25.986;2023-02-19T19:43:44;100940.34;;;14.52;59.92
58245;BME280;44550;43.864;25.986;2023-02-19T19:48:15;100947.34;;;14.56;59.72
58245;BME280;44550;43.864;25.986;2023-02-19T19:52:47;100935.09;;;14.54;59.76
58245;BME280;44550;43.864;25.986;2023-02-19T19:57:19;100942.09;;;14.49;59.87
58245;BME280;44550;43.864;25.986;2023-02-19T20:01:34;100950.00;;;14.49;59.80
58245;BME280;44550;43.864;25.986;2023-02-19T20:05:54;100944.75;;;14.52;59.70
58245;BME280;44550;43.864;25.986;2023-02-19T20:10:41;100955.22;;;14.56;59.59
58245;BME280;44550;43.864;25.986;2023-02-19T20:15:21;100969.31;;;14.40;60.07
58245;BME280;44550;43.864;25.986;2023-02-19T20:19:39;100972.00;;;14.37;60.30
58245;BME280;44550;43.864;25.986;2023-02-19T20:28:27;100975.50;;;14.30;60.10
58245;BME280;44550;43.864;25.986;2023-02-19T20:36:59;100976.34;;;14.37;59.69
58245;BME280;44550;43.864;25.986;2023-02-19T20:41:17;100972.00;;;14.36;58.95
58245;BME280;44550;43.864;25.986;2023-02-19T20:49:53;100974.66;;;14.31;58.89
58245;BME280;44550;43.864;25.986;2023-02-19T20:54:03;100956.25;;;14.26;58.80
58245;BME280;44550;43.864;25.986;2023-02-19T20:58:25;100965.06;;;14.24;58.74
58245;BME280;44550;43.864;25.986;2023-02-19T21:02:30;100974.69;;;14.22;58.38
58245;BME280;44550;43.864;25.986;2023-02-19T21:06:34;100977.31;;;14.25;58.42
58245;BME280;44550;43.864;25.986;2023-02-19T21:11:25;100976.44;;;14.21;58.81
58245;BME280;44550;43.864;25.986;2023-02-19T21:15:23;100991.38;;;14.12;59.30
58245;BME280;44550;43.864;25.986;2023-02-19T21:19:27;100994.91;;;14.00;59.72
58245;BME280;44550;43.864;25.986;2023-02-19T21:23:40;101006.31;;;14.00;59.53
58245;BME280;44550;43.864;25.986;2023-02-19T21:32:50;101015.94;;;14.00;59.33
58245;BME280;44550;43.864;25.986;2023-02-19T21:37:01;101020.34;;;13.90;59.62
58245;BME280;44550;43.864;25.986;2023-02-19T21:41:24;101026.53;;;13.84;60.18
58245;BME280;44550;43.864;25.986;2023-02-19T21:45:48;101023.91;;;13.75;60.57
58245;BME280;44550;43.864;25.986;2023-02-19T21:49:53;101023.03;;;13.62;61.16
58245;BME280;44550;43.864;25.986;2023-02-19T21:54:35;101020.41;;;13.64;61.01
58245;BME280;44550;43.864;25.986;2023-02-19T21:58:55;101023.06;;;13.49;61.42
58245;BME280;44550;43.864;25.986;2023-02-19T22:02:58;101007.31;;;13.43;61.80
58245;BME280;44550;43.864;25.986;2023-02-19T22:07:00;101016.88;;;13.21;62.46
58245;BME280;44550;43.864;25.986;2023-02-19T22:11:02;101023.03;;;13.13;62.84
58245;BME280;44550;43.864;25.986;2023-02-19T22:19:36;101026.50;;;13.11;63.17
58245;BME280;44550;43.864;25.986;2023-02-19T22:23:43;101035.25;;;13.07;63.32
58245;BME280;44550;43.864;25.986;2023-02-19T22:27:54;101034.34;;;12.88;63.94
58245;BME280;44550;43.864;25.986;2023-02-19T22:32:15;101034.38;;;12.97;63.72
58245;BME280;44550;43.864;25.986;2023-02-19T22:36:38;101032.63;;;12.85;63.99
58245;BME280;44550;43.864;25.986;2023-02-19T22:41:03;101051.84;;;12.86;64.18
58245;BME280;44550;43.864;25.986;2023-02-19T22:45:34;101048.34;;;12.85;64.11
58245;BME280;44550;43.864;25.986;2023-02-19T22:49:44;101048.34;;;12.87;64.19
58245;BME280;44550;43.864;25.986;2023-02-19T22:53:49;101054.44;;;12.77;64.74
58245;BME280;44550;43.864;25.986;2023-02-19T23:02:16;101053.50;;;12.58;65.45
58245;BME280;44550;43.864;25.986;2023-02-19T23:06:21;101039.47;;;12.48;65.74
58245;BME280;44550;43.864;25.986;2023-02-19T23:10:41;101030.72;;;12.35;66.28
58245;BME280;44550;43.864;25.986;2023-02-19T23:14:48;101029.78;;;12.26;66.60
58245;BME280;44550;43.864;25.986;2023-02-19T23:18:56;101027.16;;;12.26;66.54
58245;BME280;44550;43.864;25.986;2023-02-19T23:23:12;101029.75;;;12.19;66.80
58245;BME280;44550;43.864;25.986;2023-02-19T23:27:27;101032.38;;;12.21;66.77
58245;BME280;44550;43.864;25.986;2023-02-19T23:31:31;101035.00;;;12.16;66.84
58245;BME280;44550;43.864;25.986;2023-02-19T23:35:35;101024.47;;;12.09;67.11
58245;BME280;44550;43.864;25.986;2023-02-19T23:39:35;101033.13;;;12.02;67.48
58245;BME280;44550;43.864;25.986;2023-02-19T23:43:41;101033.16;;;12.05;67.48
58245;BME280;44550;43.864;25.986;2023-02-19T23:47:50;101028.72;;;11.90;67.67
58245;BME280;44550;43.864;25.986;2023-02-19T23:51:51;101043.44;;;11.79;68.50
58245;BME280;44550;43.864;25.986;2023-02-19T23:55:53;101044.22;;;11.65;69.24
